Attleboro, MA

1:12 AM EDT on October 23, 2014 (GMT -0400)
Dodgeville | Change Station
CLOSE
Current Station
Personal Weather Station
Location: Attleboro, MA
Elevation: 70 ft
Nearby Weather Stations

Elev 70 ft 41.92 °N, 71.28 °W | Updated 14 minutes ago

Thunderstorm
Thunderstorm
51.5 °F
Feels Like 51.5 °F
N
2.0
Wind Variable Wind from ENE
Gusts 7.0 mph

Today
High -- | Low -- °F
--% Chance of Precip.
Yesterday
High -- | Low -- °F
Precip. -- in
7:06 AM 5:51 PM
Waning Crescent, 1% visible
Pressure 29.76 in
Visibility 9.0 miles
Clouds Few 800 ft
Scattered Clouds 1300 ft
Mostly Cloudy 1800 ft
Dew Point 51 °F
Humidity 98%
Rainfall 0.40 in
Snow Depth Not available.
UV 0 out of 12
Pollen .30 out of 12
Ozone Good
PM2.5 Good
Flu Activity No Activity
METAR KSFZ 230455Z 01013G20KT 9SM VCTS FEW008 SCT013 BKN018 10/06 A2976 RMK AO1 LTG DSNT NE TSB42 P0021

More Conditions Fewer Conditions

Pressure 29.76 in
Visibility 9.0 miles
Clouds Few 800 ft
Scattered Clouds 1300 ft
Mostly Cloudy 1800 ft
Dew Point 51 °F
Humidity 98%
Rainfall 0.40 in
Snow Depth Not available.
UV 0 out of 12
Pollen .30 out of 12
Ozone Good
PM2.5 Good
Flu Activity No Activity
METAR KSFZ 230455Z 01013G20KT 9SM VCTS FEW008 SCT013 BKN018 10/06 A2976 RMK AO1 LTG DSNT NE TSB42 P0021

More Conditions Fewer Conditions

10-Day Weather Forecast

Almanac

Astronomy

Oct. 23, 2014 Rise Set
Actual Time 7:06 AM EDT 5:51 PM EDT
Civil Twilight 6:38 AM EDT 6:19 PM EDT
Nautical Twilight 6:05 AM EDT 6:52 PM EDT
Astronomical Twilight 5:33 AM EDT 7:24 PM EDT
Moon 6:43 AM EDT 5:51 PM EDT
Length of Visible Light 11h 41m
Length of Day
10h 44m
Tomorrow will be 2m 38s shorter.
Waning Crescent, 1% of the Moon is Illuminated
Today
Waning Crescent
Oct 23
New
Oct 30
First Quarter
Nov 6
Full
Nov 14
Last Quarter

Today's Extremes

State Highs State Lows

Community

WunderPhotos

Upload Photos

1,764,170 photos uploaded!

Nearby

Air Quality

  Air Quality AQ Index Pollutant
Yesterday Good
PM2.5
Yesterday Good
OZONE
Current Good
PM2.5
Current Good
OZONE
Wednesday Good
PM2.5
Thursday Good
PM2.5

Snow Depth

Station Depth Elevation
No new snow has been reported.

Earthquake Activity

City Distance Mag. Time & Date
No recent earthquake activity has been reported nearby.
Minimum magnitude displayed is 2.5.

Coastal Water Temperatures

Place Temperature
Newport, RI 60.1 °F
Quonset Point, RI 60.1 °F
Conimicut Light, RI 60.1 °F

Nearby Weather Stations